createdAt,value
2018-04-28T00:00:44.931Z,14.00
2018-04-28T00:03:13.210Z,14.10
2018-04-28T00:05:41.538Z,14.10
2018-04-28T00:08:09.061Z,14.00
2018-04-28T00:10:37.827Z,14.00
2018-04-28T00:13:05.433Z,13.90
2018-04-28T00:15:32.938Z,14.00
2018-04-28T00:18:00.455Z,14.00
2018-04-28T00:20:29.686Z,13.90
2018-04-28T00:23:02.772Z,13.80
2018-04-28T00:25:39.969Z,13.90
2018-04-28T00:28:13.361Z,13.60
2018-04-28T00:30:41.295Z,13.50
2018-04-28T00:33:17.353Z,13.40
2018-04-28T00:35:45.666Z,13.40
2018-04-28T00:38:13.182Z,13.40
2018-04-28T00:40:43.328Z,13.30
2018-04-28T00:43:14.475Z,13.20
2018-04-28T00:45:49.624Z,13.30
2018-04-28T00:48:17.200Z,13.20
2018-04-28T00:50:55.324Z,13.30
2018-04-28T00:53:24.283Z,13.20
2018-04-28T00:55:54.477Z,13.20
2018-04-28T01:01:26.276Z,13.20
2018-04-28T01:03:54.556Z,13.20
2018-04-28T01:06:22.853Z,13.30
2018-04-28T01:08:50.358Z,13.20
2018-04-28T01:11:19.597Z,13.30
2018-04-28T01:13:51.408Z,13.20
2018-04-28T01:16:19.726Z,13.20
2018-04-28T01:18:54.038Z,13.30
2018-04-28T01:21:25.491Z,13.20
2018-04-28T01:23:58.509Z,13.20
2018-04-28T01:26:50.206Z,13.20
2018-04-28T01:29:17.712Z,13.10
2018-04-28T01:32:00.121Z,13.20
2018-04-28T01:34:29.229Z,13.20
2018-04-28T01:36:58.716Z,13.00
2018-04-28T01:39:45.088Z,13.10
2018-04-28T01:42:16.985Z,13.10
2018-04-28T01:44:50.408Z,13.10
2018-04-28T01:47:22.457Z,13.10
2018-04-28T01:49:51.825Z,13.10
2018-04-28T01:52:22.042Z,13.00
2018-04-28T01:55:05.226Z,13.00
2018-04-28T01:57:49.449Z,12.90
2018-04-28T02:00:38.369Z,12.90
2018-04-28T02:03:09.314Z,12.70
2018-04-28T02:05:57.360Z,12.70
2018-04-28T02:08:24.865Z,12.50
2018-04-28T02:10:54.753Z,12.50
2018-04-28T02:13:22.308Z,12.50
2018-04-28T02:15:50.589Z,12.50
2018-04-28T02:21:36.217Z,12.40
2018-04-28T02:24:11.468Z,12.40
2018-04-28T02:26:39.837Z,12.40
2018-04-28T02:29:12.120Z,12.30
2018-04-28T02:32:02.091Z,12.40
2018-04-28T02:34:33.179Z,12.30
2018-04-28T02:37:10.349Z,12.20
2018-04-28T02:39:40.083Z,12.10
2018-04-28T02:42:14.389Z,12.00
2018-04-28T02:44:45.533Z,12.20
2018-04-28T02:47:17.185Z,12.10
2018-04-28T02:49:46.277Z,12.10
2018-04-28T02:52:16.422Z,12.00
2018-04-28T02:57:52.948Z,12.00
2018-04-28T03:00:23.267Z,11.90
2018-04-28T03:02:53.569Z,12.10
2018-04-28T03:05:27.061Z,12.00
2018-04-28T03:08:03.431Z,12.10
2018-04-28T03:10:37.650Z,12.10
2018-04-28T03:13:24.935Z,12.10
2018-04-28T03:15:57.809Z,12.10
2018-04-28T03:18:44.109Z,12.10
2018-04-28T03:21:13.689Z,12.00
2018-04-28T03:23:42.129Z,11.90
2018-04-28T03:26:27.009Z,12.00
2018-04-28T03:28:56.994Z,11.90
2018-04-28T03:31:28.767Z,11.80
2018-04-28T03:37:07.505Z,11.70
2018-04-28T03:39:35.929Z,11.60
2018-04-28T03:42:07.060Z,11.80
2018-04-28T03:44:35.264Z,11.80
2018-04-28T03:47:38.006Z,11.80
2018-04-28T03:50:06.918Z,11.80
2018-04-28T03:52:38.038Z,11.70
2018-04-28T03:55:06.340Z,11.70
2018-04-28T03:57:45.745Z,11.80
2018-04-28T04:00:25.026Z,11.70
2018-04-28T04:03:04.403Z,11.70
2018-04-28T04:05:53.409Z,11.50
2018-04-28T04:08:25.553Z,11.60
2018-04-28T04:11:03.649Z,11.60
2018-04-28T04:13:42.741Z,11.60
2018-04-28T04:16:26.786Z,11.60
2018-04-28T04:19:16.797Z,11.70
2018-04-28T04:22:01.126Z,11.60
2018-04-28T04:24:41.505Z,11.70
2018-04-28T04:27:32.377Z,11.80
2018-04-28T04:30:10.560Z,11.80
2018-04-28T04:32:40.681Z,11.90
2018-04-28T04:35:19.473Z,11.90
2018-04-28T04:38:05.649Z,11.80
2018-04-28T04:43:43.349Z,11.90
2018-04-28T04:46:32.491Z,11.90
2018-04-28T04:49:21.724Z,11.90
2018-04-28T04:51:55.213Z,12.00
2018-04-28T04:54:44.373Z,12.20
2018-04-28T04:57:23.851Z,12.20
2018-04-28T05:03:17.064Z,12.30
2018-04-28T05:06:11.067Z,12.30
2018-04-28T05:09:01.309Z,12.40
2018-04-28T05:14:48.629Z,12.60
2018-04-28T05:17:28.584Z,12.60
2018-04-28T05:26:20.388Z,12.60
2018-04-28T05:29:00.570Z,12.70
2018-04-28T05:31:33.754Z,12.60
2018-04-28T05:34:15.990Z,12.70
2018-04-28T05:37:09.882Z,12.90
2018-04-28T05:43:01.328Z,13.20
2018-04-28T05:45:40.793Z,13.40
2018-04-28T05:48:29.946Z,13.60
2018-04-28T05:51:23.321Z,13.70
2018-04-28T05:54:16.469Z,13.70
2018-04-28T05:57:07.413Z,13.70
2018-04-28T05:59:47.393Z,13.80
2018-04-28T06:02:27.747Z,13.80
2018-04-28T06:05:07.576Z,14.10
2018-04-28T06:11:17.553Z,14.60
2018-04-28T06:13:56.995Z,14.80
2018-04-28T06:16:34.545Z,15.10
2018-04-28T06:19:08.151Z,15.40
2018-04-28T06:21:35.712Z,15.60
2018-04-28T06:24:03.219Z,15.80
2018-04-28T06:26:31.529Z,15.80
2018-04-28T06:28:59.816Z,15.90
2018-04-28T06:31:28.102Z,16.00
2018-04-28T06:33:56.365Z,16.30
2018-04-28T06:36:23.941Z,16.30
2018-04-28T06:38:52.218Z,16.70
2018-04-28T06:41:19.735Z,16.60
2018-04-28T06:43:47.263Z,16.90
2018-04-28T06:46:15.563Z,17.60
2018-04-28T06:48:43.073Z,17.50
2018-04-28T06:51:10.658Z,18.00
2018-04-28T06:53:38.877Z,18.20
2018-04-28T06:56:06.413Z,18.90
2018-04-28T06:58:34.716Z,19.40
2018-04-28T07:01:02.248Z,19.30
2018-04-28T07:03:30.562Z,19.90
2018-04-28T07:05:58.180Z,19.80
2018-04-28T07:08:26.504Z,20.10
2018-04-28T07:10:54.153Z,20.10
2018-04-28T07:13:21.610Z,20.40
2018-04-28T07:15:49.939Z,21.20
2018-04-28T07:18:17.457Z,21.10
2018-04-28T07:20:45.748Z,22.20
2018-04-28T07:23:14.030Z,22.70
2018-04-28T07:25:42.302Z,22.80
2018-04-28T07:28:10.608Z,23.40
2018-04-28T07:30:38.173Z,23.30
2018-04-28T07:33:05.685Z,24.10
2018-04-28T07:35:33.222Z,24.80
2018-04-28T07:38:00.780Z,25.40
2018-04-28T07:40:28.287Z,25.30
2018-04-28T07:42:55.829Z,26.20
2018-04-28T07:45:23.345Z,27.10
2018-04-28T07:47:50.853Z,27.40
2018-04-28T07:50:18.378Z,27.50
2018-04-28T07:52:45.891Z,27.80
2018-04-28T07:55:14.172Z,28.40
2018-04-28T07:57:41.694Z,28.40
2018-04-28T08:00:09.213Z,28.30
2018-04-28T08:02:36.714Z,29.70
2018-04-28T08:05:04.244Z,30.40
2018-04-28T08:07:32.620Z,29.60
2018-04-28T08:10:00.129Z,29.50
2018-04-28T08:12:27.661Z,29.70
2018-04-28T08:14:55.929Z,29.90
2018-04-28T08:17:24.959Z,30.00
2018-04-28T08:19:53.245Z,29.20
2018-04-28T08:22:20.809Z,29.20
2018-04-28T08:24:48.321Z,29.20
2018-04-28T08:27:15.853Z,29.60
2018-04-28T08:29:43.368Z,29.90
2018-04-28T08:32:11.644Z,30.50
2018-04-28T08:34:40.685Z,31.10
2018-04-28T08:37:08.265Z,31.10
2018-04-28T08:39:36.505Z,31.70
2018-04-28T08:42:04.833Z,31.90
2018-04-28T08:44:32.347Z,31.90
2018-04-28T08:47:00.633Z,30.60
2018-04-28T08:49:29.036Z,31.40
2018-04-28T08:51:56.541Z,31.30
2018-04-28T08:54:24.079Z,32.10
2018-04-28T08:56:51.658Z,33.00
2018-04-28T08:59:19.209Z,32.80
2018-04-28T09:01:46.756Z,31.70
2018-04-28T09:04:14.282Z,31.30
2018-04-28T09:06:46.393Z,31.50
2018-04-28T09:09:14.052Z,31.60
2018-04-28T09:11:42.341Z,31.80
2018-04-28T09:14:09.845Z,31.70
2018-04-28T09:16:37.377Z,32.00
2018-04-28T09:19:04.877Z,32.90
2018-04-28T09:21:32.384Z,33.30
2018-04-28T09:24:00.708Z,34.00
2018-04-28T09:26:28.263Z,34.00
2018-04-28T09:28:55.777Z,34.60
2018-04-28T09:31:23.334Z,34.70
2018-04-28T09:33:50.841Z,35.50
2018-04-28T09:36:18.357Z,36.10
2018-04-28T09:38:46.660Z,34.70
2018-04-28T09:41:14.938Z,35.50
2018-04-28T09:43:43.209Z,36.10
2018-04-28T09:46:11.517Z,35.60
2018-04-28T09:48:39.027Z,35.60
2018-04-28T09:51:06.541Z,36.50
2018-04-28T09:53:35.024Z,35.00
2018-04-28T09:56:02.547Z,34.90
2018-04-28T09:58:30.049Z,34.40
2018-04-28T10:00:58.354Z,35.80
2018-04-28T10:03:30.928Z,35.70
2018-04-28T10:05:58.520Z,36.00
2018-04-28T10:08:26.003Z,36.80
2018-04-28T10:10:53.573Z,36.80
2018-04-28T10:13:21.101Z,37.20
2018-04-28T10:15:48.613Z,36.60
2018-04-28T10:18:16.902Z,36.60
2018-04-28T10:20:45.231Z,38.00
2018-04-28T10:23:12.749Z,37.90
2018-04-28T10:25:40.262Z,35.70
2018-04-28T10:28:07.813Z,35.40
2018-04-28T10:30:35.329Z,34.30
2018-04-28T10:33:02.857Z,35.60
2018-04-28T10:35:30.397Z,36.80
2018-04-28T10:37:57.905Z,37.80
2018-04-28T10:40:25.414Z,38.60
2018-04-28T10:42:52.957Z,37.70
2018-04-28T10:45:21.990Z,36.70
2018-04-28T10:47:49.505Z,36.60
2018-04-28T10:50:17.036Z,36.30
2018-04-28T10:52:44.537Z,36.40
2018-04-28T10:55:12.820Z,35.90
2018-04-28T10:57:41.119Z,36.00
2018-04-28T11:00:09.399Z,36.90
2018-04-28T11:02:37.673Z,37.30
2018-04-28T11:05:05.968Z,36.70
2018-04-28T11:07:34.251Z,38.00
2018-04-28T11:10:02.537Z,38.50
2018-04-28T11:12:30.215Z,38.40
2018-04-28T11:14:57.724Z,38.90
2018-04-28T11:17:25.236Z,40.30
2018-04-28T11:19:52.766Z,40.10
2018-04-28T11:22:21.038Z,40.00
2018-04-28T11:24:49.342Z,39.60
2018-04-28T11:27:17.654Z,39.60
2018-04-28T11:29:45.160Z,39.50
2018-04-28T11:32:12.670Z,39.20
2018-04-28T11:34:40.310Z,39.60
2018-04-28T11:37:08.586Z,39.70
2018-04-28T11:39:36.109Z,39.70
2018-04-28T11:42:03.629Z,39.00
2018-04-28T11:44:31.909Z,38.00
2018-04-28T11:47:00.189Z,36.80
2018-04-28T11:49:28.481Z,36.00
2018-04-28T11:51:56.757Z,35.20
2018-04-28T11:54:25.039Z,34.90
2018-04-28T11:56:53.330Z,35.90
2018-04-28T11:59:20.833Z,35.90
2018-04-28T12:01:48.360Z,36.10
2018-04-28T12:04:15.916Z,35.90
2018-04-28T12:06:44.193Z,35.70
2018-04-28T12:09:12.470Z,35.00
2018-04-28T12:11:40.761Z,35.40
2018-04-28T12:14:09.109Z,35.30
2018-04-28T12:16:36.622Z,35.30
2018-04-28T12:19:04.149Z,34.30
2018-04-28T12:21:31.666Z,34.70
2018-04-28T12:23:59.937Z,35.30
2018-04-28T12:26:27.473Z,35.20
2018-04-28T12:28:55.756Z,35.20
2018-04-28T12:31:24.030Z,34.50
2018-04-28T12:33:52.326Z,34.40
2018-04-28T12:36:20.606Z,33.80
2018-04-28T12:38:48.887Z,33.60
2018-04-28T12:41:17.197Z,33.70
2018-04-28T12:43:44.724Z,33.60
2018-04-28T12:46:12.993Z,33.80
2018-04-28T12:48:41.295Z,33.80
2018-04-28T12:51:10.561Z,33.80
2018-04-28T12:53:38.061Z,33.50
2018-04-28T12:56:06.349Z,32.50
2018-04-28T12:58:33.854Z,32.40
2018-04-28T13:01:01.353Z,31.80
2018-04-28T13:03:29.675Z,29.70
2018-04-28T13:05:57.950Z,29.70
2018-04-28T13:08:25.470Z,29.60
2018-04-28T13:10:53.781Z,29.50
2018-04-28T13:13:22.050Z,29.40
2018-04-28T13:15:50.392Z,29.00
2018-04-28T13:18:17.908Z,29.00
2018-04-28T13:20:46.185Z,30.50
2018-04-28T13:23:14.473Z,30.00
2018-04-28T13:25:42.021Z,29.90
2018-04-28T13:28:10.302Z,29.70
2018-04-28T13:30:38.583Z,28.80
2018-04-28T13:33:06.875Z,27.80
2018-04-28T13:35:35.206Z,27.40
2018-04-28T13:38:02.712Z,27.30
2018-04-28T13:40:31.013Z,26.20
2018-04-28T13:42:58.518Z,26.10
2018-04-28T13:48:05.860Z,25.70
2018-04-28T13:50:34.145Z,25.60
2018-04-28T13:53:02.430Z,25.60
2018-04-28T13:55:30.727Z,25.70
2018-04-28T13:57:58.224Z,25.60
2018-04-28T14:00:25.737Z,25.40
2018-04-28T14:02:54.026Z,25.20
2018-04-28T14:05:22.329Z,25.20
2018-04-28T14:07:50.597Z,25.20
2018-04-28T14:10:18.153Z,25.10
2018-04-28T14:12:46.428Z,25.10
2018-04-28T14:15:14.718Z,24.90
2018-04-28T14:17:43.077Z,24.80
2018-04-28T14:20:11.366Z,24.80
2018-04-28T14:22:39.670Z,24.90
2018-04-28T14:25:07.197Z,24.80
2018-04-28T14:27:34.722Z,24.70
2018-04-28T14:30:02.237Z,24.60
2018-04-28T14:32:29.777Z,24.60
2018-04-28T14:34:57.289Z,24.60
2018-04-28T14:37:24.801Z,24.60
2018-04-28T14:39:52.346Z,24.40
2018-04-28T14:42:19.860Z,24.20
2018-04-28T14:44:47.376Z,24.20
2018-04-28T14:47:15.728Z,24.10
2018-04-28T14:49:43.233Z,24.10
2018-04-28T14:52:10.743Z,24.10
2018-04-28T14:54:39.110Z,24.10
2018-04-28T14:57:06.622Z,24.00
2018-04-28T14:59:34.186Z,24.10
2018-04-28T15:02:01.833Z,24.00
2018-04-28T15:04:29.357Z,23.70
2018-04-28T15:06:57.650Z,23.70
2018-04-28T15:09:25.181Z,23.70
2018-04-28T15:11:53.523Z,23.50
2018-04-28T15:14:21.037Z,23.40
2018-04-28T15:16:48.603Z,23.50
2018-04-28T15:19:16.945Z,23.70
2018-04-28T15:21:44.455Z,23.60
2018-04-28T15:24:12.082Z,23.70
2018-04-28T15:26:39.590Z,23.80
2018-04-28T15:29:07.868Z,23.70
2018-04-28T15:31:36.922Z,23.60
2018-04-28T15:34:04.426Z,23.70
2018-04-28T15:36:33.441Z,23.70
2018-04-28T15:39:00.973Z,23.70
2018-04-28T15:41:28.480Z,23.90
2018-04-28T15:43:56.761Z,23.60
2018-04-28T15:46:25.081Z,23.60
2018-04-28T15:48:52.625Z,23.50
2018-04-28T15:51:20.124Z,23.60
2018-04-28T15:53:47.653Z,23.50
2018-04-28T15:56:15.165Z,23.50
2018-04-28T15:58:42.674Z,23.60
2018-04-28T16:01:10.215Z,23.70
2018-04-28T16:03:39.220Z,23.60
2018-04-28T16:06:06.733Z,23.60
2018-04-28T16:08:34.265Z,23.60
2018-04-28T16:11:02.538Z,23.40
2018-04-28T16:13:30.816Z,23.30
2018-04-28T16:15:59.125Z,23.20
2018-04-28T16:18:26.649Z,23.20
2018-04-28T16:20:54.216Z,23.20
2018-04-28T16:23:21.737Z,23.20
2018-04-28T16:25:49.291Z,23.10
2018-04-28T16:28:16.793Z,23.00
2018-04-28T16:30:45.094Z,22.90
2018-04-28T16:33:13.361Z,22.80
2018-04-28T16:35:40.867Z,22.80
2018-04-28T16:38:08.400Z,22.80
2018-04-28T16:40:35.920Z,22.80
2018-04-28T16:43:03.489Z,22.80
2018-04-28T16:45:31.748Z,22.70
2018-04-28T16:47:59.259Z,22.60
2018-04-28T16:50:26.770Z,22.70
2018-04-28T16:52:54.299Z,22.60
2018-04-28T16:55:22.580Z,22.60
2018-04-28T16:57:50.844Z,22.60
2018-04-28T17:00:18.417Z,22.50
2018-04-28T17:02:46.708Z,22.50
2018-04-28T17:05:15.142Z,22.40
2018-04-28T17:07:42.688Z,22.40
2018-04-28T17:10:11.145Z,22.30
2018-04-28T17:12:39.439Z,22.30
2018-04-28T17:15:07.740Z,22.20
2018-04-28T17:17:47.087Z,22.20
2018-04-28T17:20:14.632Z,22.20
2018-04-28T17:22:42.203Z,22.20
2018-04-28T17:25:09.717Z,22.10
2018-04-28T17:27:38.782Z,21.90
2018-04-28T17:30:06.297Z,21.90
2018-04-28T17:32:34.576Z,21.90
2018-04-28T17:35:02.897Z,21.90
2018-04-28T17:37:30.406Z,21.80
2018-04-28T17:39:59.417Z,21.60
2018-04-28T17:42:27.757Z,21.70
2018-04-28T17:44:55.276Z,21.60
2018-04-28T17:47:23.562Z,21.60
2018-04-28T17:49:51.117Z,21.50
2018-04-28T17:52:19.398Z,21.40
2018-04-28T17:54:46.923Z,21.40
2018-04-28T17:57:14.538Z,21.30
2018-04-28T17:59:42.818Z,21.30
2018-04-28T18:02:11.124Z,21.20
2018-04-28T18:04:38.685Z,21.10
2018-04-28T18:07:06.205Z,21.10
2018-04-28T18:09:33.811Z,21.10
2018-04-28T18:12:01.353Z,21.00
2018-04-28T18:14:29.634Z,20.90
2018-04-28T18:16:57.922Z,20.80
2018-04-28T18:19:26.218Z,20.80
2018-04-28T18:21:53.746Z,20.70
2018-04-28T18:24:21.403Z,20.70
2018-04-28T18:26:48.933Z,20.60
2018-04-28T18:29:17.442Z,20.60
2018-04-28T18:31:44.945Z,20.50
2018-04-28T18:34:13.264Z,20.40
2018-04-28T18:36:40.778Z,20.30
2018-04-28T18:39:08.280Z,20.30
2018-04-28T18:41:36.129Z,20.30
2018-04-28T18:44:03.698Z,20.20
2018-04-28T18:46:31.283Z,20.10
2018-04-28T18:48:59.526Z,20.00
2018-04-28T18:51:27.045Z,20.00
2018-04-28T18:53:54.552Z,20.00
2018-04-28T18:56:22.075Z,19.90
2018-04-28T18:58:49.587Z,19.80
2018-04-28T19:01:17.869Z,19.80
2018-04-28T19:03:46.197Z,19.70
2018-04-28T19:06:13.715Z,19.70
2018-04-28T19:08:41.981Z,19.60
2018-04-28T19:11:09.509Z,19.50
2018-04-28T19:13:37.022Z,19.50
2018-04-28T19:16:05.307Z,19.50
2018-04-28T19:18:32.859Z,19.40
2018-04-28T19:21:00.455Z,19.40
2018-04-28T19:23:29.417Z,19.30
2018-04-28T19:25:57.818Z,19.30
2018-04-28T19:28:26.141Z,19.30
2018-04-28T19:30:53.687Z,19.30
2018-04-28T19:33:21.249Z,19.30
2018-04-28T19:35:48.770Z,19.30
2018-04-28T19:38:17.050Z,19.10
2018-04-28T19:40:46.125Z,19.00
2018-04-28T19:43:13.632Z,19.00
2018-04-28T19:45:41.923Z,18.90
2018-04-28T19:48:10.258Z,18.90
2018-04-28T19:50:37.763Z,18.90
2018-04-28T19:53:06.041Z,18.80
2018-04-28T19:55:34.377Z,18.80
2018-04-28T19:58:01.902Z,18.70
2018-04-28T20:00:30.195Z,18.70
2018-04-28T20:02:57.737Z,18.70
2018-04-28T20:05:26.010Z,18.70
2018-04-28T20:07:54.284Z,18.70
2018-04-28T20:10:21.822Z,18.60
2018-04-28T20:12:49.334Z,18.60
2018-04-28T20:15:17.596Z,18.50
2018-04-28T20:17:45.888Z,18.50
2018-04-28T20:20:14.159Z,18.50
2018-04-28T20:22:54.357Z,18.50
2018-04-28T20:25:23.712Z,18.40
2018-04-28T20:27:51.987Z,18.40
2018-04-28T20:30:19.520Z,18.30
2018-04-28T20:32:47.029Z,18.40
2018-04-28T20:35:15.342Z,18.30
2018-04-28T20:37:42.881Z,18.30
2018-04-28T20:40:11.153Z,18.20
2018-04-28T20:42:39.437Z,18.10
2018-04-28T20:45:07.729Z,18.10
2018-04-28T20:47:36.017Z,18.10
2018-04-28T20:50:04.289Z,18.00
2018-04-28T20:52:32.594Z,18.00
2018-04-28T20:55:00.141Z,17.90
2018-04-28T20:57:27.655Z,17.90
2018-04-28T20:59:55.288Z,17.90
2018-04-28T21:02:22.848Z,17.80
2018-04-28T21:04:50.390Z,17.80
2018-04-28T21:07:18.694Z,17.70
2018-04-28T21:09:46.200Z,17.60
2018-04-28T21:12:13.722Z,17.60
2018-04-28T21:14:41.972Z,17.50
2018-04-28T21:17:09.545Z,17.50
2018-04-28T21:19:37.865Z,17.50
2018-04-28T21:22:05.434Z,17.40
2018-04-28T21:24:33.009Z,17.50
2018-04-28T21:27:00.536Z,17.40
2018-04-28T21:29:29.014Z,17.40
2018-04-28T21:31:57.290Z,17.30
2018-04-28T21:34:25.607Z,17.30
2018-04-28T21:36:53.120Z,17.20
2018-04-28T21:39:21.413Z,17.20
2018-04-28T21:41:49.685Z,17.10
2018-04-28T21:44:18.065Z,17.10
2018-04-28T21:46:45.577Z,17.10
2018-04-28T21:49:13.140Z,17.10
2018-04-28T21:51:40.670Z,17.00
2018-04-28T21:54:08.937Z,16.90
2018-04-28T21:56:36.446Z,16.90
2018-04-28T21:59:03.981Z,16.90
2018-04-28T22:01:32.259Z,16.90
2018-04-28T22:04:00.538Z,16.90
2018-04-28T22:06:28.093Z,16.90
2018-04-28T22:08:56.373Z,16.80
2018-04-28T22:11:24.632Z,16.70
2018-04-28T22:13:52.155Z,16.70
2018-04-28T22:16:19.664Z,16.70
2018-04-28T22:18:47.182Z,16.70
2018-04-28T22:21:14.853Z,16.60
2018-04-28T22:23:42.387Z,16.60
2018-04-28T22:26:10.656Z,16.60
2018-04-28T22:28:38.189Z,16.50
2018-04-28T22:31:06.010Z,16.50
2018-04-28T22:33:34.315Z,16.40
2018-04-28T22:36:01.849Z,16.30
2018-04-28T22:38:30.123Z,16.30
2018-04-28T22:40:58.751Z,16.30
2018-04-28T22:43:26.323Z,16.20
2018-04-28T22:45:53.849Z,16.20
2018-04-28T22:48:22.129Z,16.10
2018-04-28T22:50:49.669Z,16.10
2018-04-28T22:53:17.246Z,16.10
2018-04-28T22:55:44.738Z,16.10
2018-04-28T22:58:13.050Z,16.10
2018-04-28T23:00:42.328Z,16.00
2018-04-28T23:03:09.841Z,16.10
2018-04-28T23:05:37.467Z,16.10
2018-04-28T23:08:05.031Z,16.00
2018-04-28T23:10:32.602Z,15.90
2018-04-28T23:13:00.146Z,15.90
2018-04-28T23:15:28.422Z,15.90
2018-04-28T23:17:56.693Z,15.80
2018-04-28T23:20:25.009Z,15.70
2018-04-28T23:22:52.522Z,15.60
2018-04-28T23:25:20.801Z,15.60
2018-04-28T23:27:49.109Z,15.70
2018-04-28T23:30:17.389Z,15.70
2018-04-28T23:32:45.951Z,15.70
2018-04-28T23:35:13.473Z,15.60
2018-04-28T23:37:40.989Z,15.60
2018-04-28T23:40:08.491Z,15.70
2018-04-28T23:42:36.092Z,15.70
2018-04-28T23:45:04.314Z,15.70
2018-04-28T23:47:32.657Z,15.60
2018-04-28T23:50:00.287Z,15.60
2018-04-28T23:52:27.785Z,15.60
2018-04-28T23:54:55.305Z,15.50
2018-04-28T23:57:22.837Z,15.40
2018-04-28T23:59:50.334Z,15.40
